createdAt,value
2024-05-09T00:02:55.018Z,5.80
2024-05-09T00:05:58.924Z,6.13
2024-05-09T00:09:02.053Z,5.15
2024-05-09T00:12:05.898Z,5.40
2024-05-09T00:15:09.852Z,5.43
2024-05-09T00:18:13.791Z,5.35
2024-05-09T00:21:17.736Z,4.65
2024-05-09T00:24:21.401Z,4.82
2024-05-09T00:27:25.627Z,4.63
2024-05-09T00:30:34.379Z,4.38
2024-05-09T00:33:39.696Z,4.50
2024-05-09T00:36:43.311Z,4.57
2024-05-09T00:39:46.941Z,4.30
2024-05-09T00:42:50.597Z,4.20
2024-05-09T00:45:57.106Z,4.00
2024-05-09T00:49:01.699Z,3.58
2024-05-09T00:52:06.897Z,3.67
2024-05-09T00:55:10.537Z,3.90
2024-05-09T00:58:17.335Z,3.80
2024-05-09T01:01:23.525Z,3.83
2024-05-09T01:04:27.157Z,3.70
2024-05-09T01:07:30.335Z,3.70
2024-05-09T01:10:35.470Z,3.50
2024-05-09T01:13:40.001Z,3.72
2024-05-09T01:16:43.908Z,3.30
2024-05-09T01:19:47.765Z,3.27
2024-05-09T01:22:54.261Z,3.05
2024-05-09T01:25:57.879Z,3.33
2024-05-09T01:29:01.781Z,2.93
2024-05-09T01:32:06.007Z,3.65
2024-05-09T01:35:09.722Z,2.58
2024-05-09T01:38:14.115Z,2.78
2024-05-09T01:41:17.447Z,3.20
2024-05-09T01:44:21.157Z,3.17
2024-05-09T01:47:25.013Z,2.80
2024-05-09T01:50:37.939Z,2.63
2024-05-09T01:53:44.892Z,3.13
2024-05-09T01:56:48.570Z,2.63
2024-05-09T01:59:52.362Z,3.05
2024-05-09T02:02:56.006Z,2.95
2024-05-09T02:05:59.877Z,3.58
2024-05-09T02:09:03.987Z,3.20
2024-05-09T02:12:07.896Z,3.30
2024-05-09T02:15:11.641Z,2.83
2024-05-09T02:18:15.434Z,2.95
2024-05-09T02:21:19.227Z,3.10
2024-05-09T02:24:22.921Z,3.00
2024-05-09T02:27:25.982Z,3.15
2024-05-09T02:30:38.766Z,2.90
2024-05-09T02:33:45.143Z,3.10
2024-05-09T02:36:48.852Z,3.40
2024-05-09T02:39:52.560Z,3.08
2024-05-09T02:42:55.673Z,3.40
2024-05-09T02:45:59.246Z,3.55
2024-05-09T02:49:03.049Z,2.67
2024-05-09T02:52:06.800Z,2.97
2024-05-09T02:55:10.426Z,3.72
2024-05-09T02:58:13.985Z,3.45
2024-05-09T03:01:18.377Z,4.07
2024-05-09T03:04:21.874Z,3.37
2024-05-09T03:07:25.632Z,4.07
2024-05-09T03:10:35.254Z,3.70
2024-05-09T03:13:41.861Z,4.10
2024-05-09T03:16:45.001Z,3.95
2024-05-09T03:19:48.586Z,4.22
2024-05-09T03:22:55.586Z,3.90
2024-05-09T03:26:00.597Z,3.72
2024-05-09T03:29:04.353Z,4.13
2024-05-09T03:32:08.076Z,4.05
2024-05-09T03:35:11.162Z,4.50
2024-05-09T03:38:15.064Z,4.15
2024-05-09T03:41:21.988Z,3.95
2024-05-09T03:44:25.240Z,4.10
2024-05-09T03:47:29.407Z,4.28
2024-05-09T03:50:35.696Z,4.20
2024-05-09T03:53:40.457Z,4.15
2024-05-09T03:56:43.618Z,4.35
2024-05-09T03:59:47.227Z,4.70
2024-05-09T04:02:50.709Z,4.50
2024-05-09T04:05:54.436Z,4.10
2024-05-09T04:08:58.071Z,4.45
2024-05-09T04:12:01.244Z,4.28
2024-05-09T04:15:05.402Z,4.53
2024-05-09T04:18:09.300Z,4.68
2024-05-09T04:21:13.066Z,4.65
2024-05-09T04:24:16.991Z,4.05
2024-05-09T04:27:20.692Z,4.30
2024-05-09T04:30:34.385Z,4.40
2024-05-09T04:33:41.929Z,4.05
2024-05-09T04:36:45.671Z,4.80
2024-05-09T04:39:49.312Z,4.38
2024-05-09T04:42:52.879Z,4.75
2024-05-09T04:45:56.574Z,4.20
2024-05-09T04:49:00.184Z,4.50
2024-05-09T04:52:03.328Z,4.43
2024-05-09T04:55:07.151Z,4.22
2024-05-09T04:58:11.985Z,3.90
2024-05-09T05:01:16.464Z,4.30
2024-05-09T05:04:20.210Z,4.60
2024-05-09T05:07:24.026Z,3.50
2024-05-09T05:10:33.820Z,4.03
2024-05-09T05:13:41.694Z,4.32
2024-05-09T05:16:45.530Z,3.90
2024-05-09T05:19:50.487Z,4.20
2024-05-09T05:22:54.233Z,3.95
2024-05-09T05:25:57.924Z,3.60
2024-05-09T05:29:01.781Z,3.72
2024-05-09T05:32:05.288Z,3.45
2024-05-09T05:35:09.021Z,3.58
2024-05-09T05:38:12.687Z,3.22
2024-05-09T05:41:16.605Z,4.40
2024-05-09T05:44:20.333Z,3.50
2024-05-09T05:47:25.067Z,3.85
2024-05-09T05:50:35.462Z,3.80
2024-05-09T05:53:40.643Z,3.50
2024-05-09T05:56:44.383Z,3.45
2024-05-09T05:59:48.302Z,3.22
2024-05-09T06:02:53.275Z,3.78
2024-05-09T06:05:57.483Z,3.40
2024-05-09T06:09:01.636Z,4.15
2024-05-09T06:12:06.162Z,3.85
2024-05-09T06:15:10.665Z,3.60
2024-05-09T06:18:14.586Z,3.40
2024-05-09T06:21:18.875Z,3.30
2024-05-09T06:24:23.651Z,3.60
2024-05-09T06:27:27.713Z,3.50
2024-05-09T06:33:41.797Z,3.22
2024-05-09T06:36:46.758Z,3.42
2024-05-09T06:39:52.636Z,3.30
2024-05-09T06:42:58.423Z,3.45
2024-05-09T06:46:02.785Z,3.60
2024-05-09T06:49:09.021Z,3.60
2024-05-09T06:52:13.714Z,3.10
2024-05-09T06:55:17.704Z,2.88
2024-05-09T06:58:21.833Z,3.78
2024-05-09T07:01:25.850Z,3.95
2024-05-09T07:04:29.898Z,2.80
2024-05-09T07:07:33.753Z,3.23
2024-05-09T07:10:38.541Z,3.38
2024-05-09T07:13:42.384Z,3.22
2024-05-09T07:16:46.908Z,2.80
2024-05-09T07:19:51.711Z,3.43
2024-05-09T07:22:55.852Z,3.15
2024-05-09T07:25:59.754Z,4.15
2024-05-09T07:29:03.880Z,3.00
2024-05-09T07:32:09.219Z,3.10
2024-05-09T07:35:13.903Z,3.10
2024-05-09T07:38:18.048Z,3.10
2024-05-09T07:41:21.963Z,3.10
2024-05-09T07:44:25.959Z,2.80
2024-05-09T07:48:57.134Z,3.10
2024-05-09T07:52:38.461Z,3.17
2024-05-09T07:54:19.107Z,2.70
2024-05-09T07:57:23.923Z,3.10
2024-05-09T08:00:31.478Z,3.20
2024-05-09T08:03:36.099Z,3.22
2024-05-09T08:06:40.958Z,3.30
2024-05-09T08:09:46.253Z,2.90
2024-05-09T08:12:51.036Z,3.10
2024-05-09T08:15:55.142Z,2.80
2024-05-09T08:18:59.015Z,3.25
2024-05-09T08:22:07.150Z,2.95
2024-05-09T08:25:14.385Z,3.00
2024-05-09T08:28:19.325Z,3.40
2024-05-09T08:31:24.094Z,3.33
2024-05-09T08:34:29.072Z,3.28
2024-05-09T08:37:37.801Z,2.72
2024-05-09T08:40:44.039Z,2.63
2024-05-09T08:43:49.042Z,2.90
2024-05-09T08:46:53.817Z,2.60
2024-05-09T08:50:00.699Z,3.15
2024-05-09T08:53:04.612Z,3.10
2024-05-09T08:56:11.540Z,3.03
2024-05-09T08:59:21.392Z,2.60
2024-05-09T09:02:26.815Z,2.70
2024-05-09T09:05:31.977Z,2.88
2024-05-09T09:08:39.013Z,2.75
2024-05-09T09:11:42.744Z,3.00
2024-05-09T09:14:46.525Z,3.00
2024-05-09T09:18:01.004Z,3.00
2024-05-09T09:21:05.689Z,2.70
2024-05-09T09:24:10.092Z,3.00
2024-05-09T09:27:14.852Z,3.10
2024-05-09T09:30:31.424Z,3.30
2024-05-09T09:33:43.554Z,3.80
2024-05-09T09:36:48.324Z,3.25
2024-05-09T09:39:52.202Z,2.97
2024-05-09T09:42:58.150Z,2.97
2024-05-09T09:46:02.868Z,3.57
2024-05-09T09:49:07.758Z,3.10
2024-05-09T09:52:13.347Z,3.00
2024-05-09T09:55:17.977Z,3.22
2024-05-09T09:58:22.401Z,2.93
2024-05-09T10:01:26.248Z,3.00
2024-05-09T10:04:31.634Z,2.60
2024-05-09T10:07:42.658Z,2.40
2024-05-09T10:10:48.016Z,2.80
2024-05-09T10:13:53.738Z,2.83
2024-05-09T10:17:07.028Z,2.33
2024-05-09T10:20:18.336Z,2.63
2024-05-09T10:23:28.957Z,2.75
2024-05-09T10:26:39.640Z,2.38
2024-05-09T10:29:55.958Z,2.40
2024-05-09T10:33:00.515Z,2.60
2024-05-09T10:36:04.992Z,2.38
2024-05-09T10:39:08.808Z,3.38
2024-05-09T10:42:12.477Z,2.85
2024-05-09T10:45:16.690Z,2.80
2024-05-09T10:48:21.462Z,3.87
2024-05-09T10:51:25.457Z,3.03
2024-05-09T10:54:36.690Z,3.28
2024-05-09T10:57:41.146Z,2.70
2024-05-09T11:00:45.008Z,3.20
2024-05-09T11:03:50.019Z,3.20
2024-05-09T11:06:54.725Z,3.20
2024-05-09T11:09:59.065Z,3.65
2024-05-09T11:13:03.095Z,3.30
2024-05-09T11:16:16.560Z,2.80
2024-05-09T11:19:20.997Z,3.10
2024-05-09T11:22:32.508Z,2.80
2024-05-09T11:25:36.585Z,3.00
2024-05-09T11:28:44.476Z,2.97
2024-05-09T11:31:48.890Z,2.50
2024-05-09T11:34:52.765Z,2.67
2024-05-09T11:37:56.565Z,2.40
2024-05-09T11:40:59.822Z,2.58
2024-05-09T11:44:03.511Z,2.35
2024-05-09T11:47:07.133Z,2.97
2024-05-09T11:50:16.338Z,3.10
2024-05-09T11:53:25.772Z,2.67
2024-05-09T11:56:29.548Z,2.67
2024-05-09T11:59:33.186Z,2.75
2024-05-09T12:02:36.920Z,3.20
2024-05-09T12:05:41.029Z,3.20
2024-05-09T12:08:44.906Z,2.88
2024-05-09T12:11:48.641Z,2.95
2024-05-09T12:14:52.348Z,3.28
2024-05-09T12:17:58.908Z,3.13
2024-05-09T12:21:05.242Z,3.20
2024-05-09T12:24:08.891Z,2.67
2024-05-09T12:27:12.575Z,3.42
2024-05-09T12:30:24.416Z,2.67
2024-05-09T12:33:32.511Z,3.27
2024-05-09T12:36:36.345Z,2.90
2024-05-09T12:39:39.998Z,2.50
2024-05-09T12:42:43.691Z,2.88
2024-05-09T12:45:47.473Z,2.45
2024-05-09T12:48:52.214Z,2.50
2024-05-09T12:51:55.994Z,2.73
2024-05-09T12:54:59.727Z,3.17
2024-05-09T12:58:03.532Z,2.90
2024-05-09T13:01:07.339Z,2.90
2024-05-09T13:04:11.127Z,3.30
2024-05-09T13:07:15.673Z,2.70
2024-05-09T13:10:28.766Z,2.88
2024-05-09T13:13:36.063Z,3.22
2024-05-09T13:16:39.947Z,3.20
2024-05-09T13:19:43.846Z,3.50
2024-05-09T13:22:48.447Z,3.23
2024-05-09T13:25:52.305Z,3.10
2024-05-09T13:28:55.897Z,3.25
2024-05-09T13:31:59.656Z,3.10
2024-05-09T13:35:03.508Z,3.10
2024-05-09T13:38:07.236Z,3.13
2024-05-09T13:41:11.847Z,3.40
2024-05-09T13:44:16.062Z,3.42
2024-05-09T13:47:21.071Z,3.60
2024-05-09T13:50:33.187Z,3.37
2024-05-09T13:53:39.688Z,3.17
2024-05-09T13:56:43.356Z,3.20
2024-05-09T13:59:47.017Z,3.67
2024-05-09T14:02:50.740Z,3.40
2024-05-09T14:05:54.649Z,3.37
2024-05-09T14:08:58.007Z,3.43
2024-05-09T14:12:01.614Z,3.38
2024-05-09T14:15:05.563Z,3.05
2024-05-09T14:18:12.709Z,3.65
2024-05-09T14:21:17.906Z,3.60
2024-05-09T14:24:21.557Z,3.80
2024-05-09T14:27:25.293Z,2.90
2024-05-09T14:30:36.000Z,2.90
2024-05-09T14:33:41.178Z,3.75
2024-05-09T14:36:44.956Z,3.47
2024-05-09T14:39:48.641Z,3.00
2024-05-09T14:42:52.398Z,3.25
2024-05-09T14:45:56.741Z,2.90
2024-05-09T14:49:00.700Z,3.53
2024-05-09T14:52:04.924Z,2.80
2024-05-09T14:55:10.204Z,2.60
2024-05-09T14:58:16.108Z,2.60
2024-05-09T15:01:20.755Z,2.95
2024-05-09T15:04:25.072Z,2.60
2024-05-09T15:07:28.910Z,2.90
2024-05-09T15:10:35.689Z,2.70
2024-05-09T15:13:40.625Z,2.45
2024-05-09T15:16:44.699Z,2.25
2024-05-09T15:19:48.622Z,2.10
2024-05-09T15:22:52.291Z,2.00
2024-05-09T15:25:56.128Z,2.17
2024-05-09T15:28:59.930Z,2.10
2024-05-09T15:32:03.933Z,2.00
2024-05-09T15:35:07.922Z,2.05
2024-05-09T15:38:11.903Z,2.23
2024-05-09T15:41:15.559Z,2.10
2024-05-09T15:44:22.314Z,2.03
2024-05-09T15:47:28.031Z,2.00
2024-05-09T15:50:37.563Z,1.95
2024-05-09T15:53:44.310Z,1.63
2024-05-09T15:56:51.041Z,1.90
2024-05-09T15:59:54.806Z,2.03
2024-05-09T16:02:58.459Z,1.65
2024-05-09T16:06:02.451Z,1.73
2024-05-09T16:09:06.761Z,1.90
2024-05-09T16:12:09.860Z,1.70
2024-05-09T16:15:13.612Z,2.00
2024-05-09T16:18:17.759Z,2.65
2024-05-09T16:21:21.560Z,2.33
2024-05-09T16:24:25.267Z,2.77
2024-05-09T16:27:29.050Z,2.65
2024-05-09T16:30:35.447Z,2.83
2024-05-09T16:33:40.643Z,3.00
2024-05-09T16:36:44.481Z,3.08
2024-05-09T16:39:48.247Z,3.10
2024-05-09T16:42:52.236Z,2.92
2024-05-09T16:45:55.368Z,3.10
2024-05-09T16:48:59.138Z,2.92
2024-05-09T16:52:02.906Z,2.93
2024-05-09T16:55:06.868Z,3.23
2024-05-09T16:58:12.751Z,4.10
2024-05-09T17:01:16.631Z,4.88
2024-05-09T17:04:20.430Z,4.25
2024-05-09T17:07:24.145Z,4.27
2024-05-09T17:10:32.664Z,4.10
2024-05-09T17:13:39.622Z,3.22
2024-05-09T17:16:43.370Z,4.95
2024-05-09T17:19:48.749Z,5.00
2024-05-09T17:22:52.380Z,4.40
2024-05-09T17:25:56.190Z,4.32
2024-05-09T17:28:59.938Z,4.10
2024-05-09T17:32:03.750Z,4.20
2024-05-09T17:35:07.686Z,3.63
2024-05-09T17:38:11.702Z,3.85
2024-05-09T17:41:15.390Z,3.53
2024-05-09T17:44:18.501Z,3.88
2024-05-09T17:47:21.557Z,3.93
2024-05-09T17:50:31.805Z,4.13
2024-05-09T17:53:40.279Z,4.22
2024-05-09T17:56:44.038Z,4.32
2024-05-09T17:59:47.712Z,4.67
2024-05-09T18:02:51.449Z,4.25
2024-05-09T18:05:55.222Z,4.30
2024-05-09T18:08:58.948Z,4.10
2024-05-09T18:12:03.409Z,3.78
2024-05-09T18:15:07.350Z,3.83
2024-05-09T18:18:12.215Z,3.60
2024-05-09T18:21:15.990Z,4.20
2024-05-09T18:24:22.394Z,3.63
2024-05-09T18:27:26.219Z,3.85
2024-05-09T18:30:34.812Z,4.10
2024-05-09T18:33:40.027Z,4.00
2024-05-09T18:36:43.606Z,4.13
2024-05-09T18:39:47.902Z,4.55
2024-05-09T18:42:52.294Z,5.28
2024-05-09T18:45:58.037Z,4.70
2024-05-09T18:49:03.575Z,4.70
2024-05-09T18:52:08.263Z,5.15
2024-05-09T18:55:14.441Z,4.88
2024-05-09T18:58:22.131Z,4.70
2024-05-09T19:01:27.620Z,5.20
2024-05-09T19:04:32.463Z,4.45
2024-05-09T19:07:37.488Z,4.53
2024-05-09T19:10:42.431Z,5.10
2024-05-09T19:13:47.886Z,5.00
2024-05-09T19:16:51.689Z,5.75
2024-05-09T19:19:57.495Z,5.77
2024-05-09T19:23:01.807Z,5.47
2024-05-09T19:26:08.691Z,4.97
2024-05-09T19:29:15.532Z,5.28
2024-05-09T19:32:21.866Z,4.47
2024-05-09T19:35:27.466Z,5.20
2024-05-09T19:38:32.899Z,4.75
2024-05-09T19:41:38.342Z,4.70
2024-05-09T19:44:42.633Z,4.95
2024-05-09T19:47:47.180Z,5.07
2024-05-09T19:50:53.244Z,5.57
2024-05-09T19:53:58.548Z,4.72
2024-05-09T19:57:04.573Z,5.40
2024-05-09T20:00:15.007Z,5.38
2024-05-09T20:03:26.953Z,5.17
2024-05-09T20:06:32.370Z,5.90
2024-05-09T20:09:37.888Z,7.20
2024-05-09T20:12:42.382Z,7.45
2024-05-09T20:15:48.119Z,6.60
2024-05-09T20:18:52.789Z,6.22
2024-05-09T20:22:00.936Z,5.15
2024-05-09T20:25:06.504Z,5.23
2024-05-09T20:28:12.332Z,5.32
2024-05-09T20:31:22.172Z,4.80
2024-05-09T20:34:28.684Z,5.07
2024-05-09T20:37:36.499Z,5.20
2024-05-09T20:40:41.605Z,5.03
2024-05-09T20:43:45.730Z,5.15
2024-05-09T20:46:49.255Z,5.32
2024-05-09T20:49:53.563Z,4.90
2024-05-09T20:52:57.461Z,5.45
2024-05-09T20:56:00.637Z,5.60
2024-05-09T20:59:04.341Z,5.50
2024-05-09T21:02:08.170Z,5.93
2024-05-09T21:05:13.775Z,5.67
2024-05-09T21:08:17.598Z,5.47
2024-05-09T21:11:23.083Z,5.03
2024-05-09T21:14:26.815Z,4.45
2024-05-09T21:17:29.986Z,4.47
2024-05-09T21:20:35.162Z,4.80
2024-05-09T21:23:38.997Z,4.53
2024-05-09T21:26:42.638Z,4.47
2024-05-09T21:29:46.300Z,4.00
2024-05-09T21:32:50.087Z,4.50
2024-05-09T21:35:55.348Z,4.40
2024-05-09T21:38:59.092Z,4.30
2024-05-09T21:42:02.912Z,4.00
2024-05-09T21:45:06.978Z,4.53
2024-05-09T21:48:13.103Z,4.65
2024-05-09T21:51:16.858Z,4.18
2024-05-09T21:54:20.558Z,4.35
2024-05-09T21:57:24.073Z,4.40
2024-05-09T22:00:34.805Z,4.10
2024-05-09T22:03:41.473Z,4.30
2024-05-09T22:06:45.409Z,4.27
2024-05-09T22:09:49.249Z,4.30
2024-05-09T22:12:52.925Z,4.80
2024-05-09T22:15:56.629Z,3.90
2024-05-09T22:19:00.378Z,3.45
2024-05-09T22:22:04.341Z,3.50
2024-05-09T22:25:08.523Z,4.63
2024-05-09T22:28:14.899Z,3.77
2024-05-09T22:31:18.909Z,4.00
2024-05-09T22:34:22.662Z,3.97
2024-05-09T22:37:26.330Z,4.27
2024-05-09T22:40:38.927Z,3.88
2024-05-09T22:43:50.461Z,3.80
2024-05-09T22:46:54.144Z,4.07
2024-05-09T22:49:57.795Z,3.90
2024-05-09T22:53:01.492Z,3.90
2024-05-09T22:56:05.392Z,4.55
2024-05-09T22:59:09.108Z,3.70
2024-05-09T23:02:12.922Z,3.53
2024-05-09T23:05:16.815Z,3.28
2024-05-09T23:08:20.493Z,3.73
2024-05-09T23:11:24.224Z,3.83
2024-05-09T23:14:27.844Z,3.85
2024-05-09T23:17:31.575Z,4.05
2024-05-09T23:20:38.740Z,3.38
2024-05-09T23:23:44.007Z,3.78
2024-05-09T23:26:47.923Z,3.60
2024-05-09T23:29:51.535Z,3.67
2024-05-09T23:32:55.249Z,3.42
2024-05-09T23:35:59.052Z,3.65
2024-05-09T23:39:02.597Z,3.57
2024-05-09T23:42:06.367Z,3.65
2024-05-09T23:45:10.340Z,3.70
2024-05-09T23:48:13.727Z,3.58
2024-05-09T23:51:17.750Z,4.10
2024-05-09T23:54:21.419Z,3.22
2024-05-09T23:57:25.033Z,3.85
